createdAt,value
2018-07-14T00:01:01.972Z,101980.13
2018-07-14T00:03:31.136Z,101975.23
2018-07-14T00:06:00.012Z,101975.21
2018-07-14T00:08:28.828Z,101982.59
2018-07-14T00:10:58.105Z,101972.80
2018-07-14T00:13:27.217Z,101965.13
2018-07-14T00:15:56.348Z,101970.19
2018-07-14T00:18:25.435Z,101972.98
2018-07-14T00:20:54.332Z,101964.25
2018-07-14T00:23:23.418Z,101972.20
2018-07-14T00:25:57.366Z,101973.95
2018-07-14T00:28:26.116Z,101975.38
2018-07-14T00:30:54.865Z,101971.85
2018-07-14T00:33:24.372Z,101970.23
2018-07-14T00:35:53.207Z,101963.20
2018-07-14T00:38:22.433Z,101974.14
2018-07-14T00:40:51.459Z,101965.36
2018-07-14T00:43:20.617Z,101963.45
2018-07-14T00:45:49.984Z,101965.20
2018-07-14T00:48:18.977Z,101962.59
2018-07-14T00:50:47.798Z,101968.31
2018-07-14T00:53:16.608Z,101963.16
2018-07-14T00:55:45.713Z,101959.44
2018-07-14T00:58:14.818Z,101962.66
2018-07-14T01:00:44.260Z,101964.22
2018-07-14T01:03:13.319Z,101973.39
2018-07-14T01:05:42.481Z,101969.86
2018-07-14T01:08:11.215Z,101966.30
2018-07-14T01:10:40.198Z,101963.34
2018-07-14T01:13:09.025Z,101969.34
2018-07-14T01:15:38.099Z,101970.55
2018-07-14T01:18:07.696Z,101960.44
2018-07-14T01:20:36.447Z,101965.70
2018-07-14T01:23:05.595Z,101963.91
2018-07-14T01:25:34.692Z,101970.00
2018-07-14T01:28:03.827Z,101973.00
2018-07-14T01:30:32.697Z,101971.47
2018-07-14T01:33:01.766Z,101978.66
2018-07-14T01:35:30.498Z,101976.78
2018-07-14T01:37:59.611Z,101969.80
2018-07-14T01:40:28.684Z,101972.64
2018-07-14T01:42:57.767Z,101973.27
2018-07-14T01:45:27.365Z,101973.67
2018-07-14T01:47:56.461Z,101977.12
2018-07-14T01:50:25.203Z,101979.95
2018-07-14T01:52:54.642Z,101984.67
2018-07-14T01:55:23.825Z,101983.61
2018-07-14T02:00:20.292Z,101976.98
2018-07-14T02:02:49.111Z,101977.03
2018-07-14T02:05:18.407Z,101972.20
2018-07-14T02:07:47.171Z,101973.04
2018-07-14T02:10:16.660Z,101974.14
2018-07-14T02:12:45.508Z,101969.31
2018-07-14T02:15:14.393Z,101971.77
2018-07-14T02:17:43.305Z,101971.52
2018-07-14T02:20:12.216Z,101981.14
2018-07-14T02:22:40.987Z,101981.98
2018-07-14T02:25:09.799Z,101981.77
2018-07-14T02:27:39.426Z,101985.67
2018-07-14T02:30:08.347Z,101980.01
2018-07-14T02:32:37.854Z,101981.63
2018-07-14T02:35:06.947Z,101988.19
2018-07-14T02:37:36.324Z,101987.62
2018-07-14T02:40:05.334Z,101987.36
2018-07-14T02:42:34.474Z,101987.92
2018-07-14T02:45:03.461Z,101989.30
2018-07-14T02:47:32.324Z,101990.34
2018-07-14T02:50:01.124Z,101985.77
2018-07-14T02:52:29.903Z,101985.50
2018-07-14T02:54:59.095Z,101985.86
2018-07-14T02:57:28.321Z,101983.17
2018-07-14T02:59:57.386Z,101976.14
2018-07-14T03:02:26.767Z,101973.98
2018-07-14T03:04:55.607Z,101972.11
2018-07-14T03:07:24.797Z,101974.70
2018-07-14T03:09:53.860Z,101976.41
2018-07-14T03:12:22.995Z,101972.75
2018-07-14T03:14:51.727Z,101976.62
2018-07-14T03:17:20.619Z,101972.53
2018-07-14T03:19:50.217Z,101963.56
2018-07-14T03:22:19.490Z,101966.55
2018-07-14T03:24:48.355Z,101962.52
2018-07-14T03:27:17.224Z,101966.37
2018-07-14T03:29:46.102Z,101962.86
2018-07-14T03:32:15.666Z,101962.67
2018-07-14T03:34:45.221Z,101962.45
2018-07-14T03:37:14.314Z,101964.05
2018-07-14T03:39:43.435Z,101968.28
2018-07-14T03:42:12.897Z,101966.99
2018-07-14T03:44:41.631Z,101961.20
2018-07-14T03:47:10.410Z,101968.31
2018-07-14T03:49:39.437Z,101971.27
2018-07-14T03:52:08.169Z,101973.45
2018-07-14T03:54:37.785Z,101967.81
2018-07-14T03:57:06.751Z,101972.96
2018-07-14T03:59:35.992Z,101978.59
2018-07-14T04:02:05.125Z,101974.41
2018-07-14T04:04:34.169Z,101973.80
2018-07-14T04:07:03.503Z,101968.89
2018-07-14T04:09:32.277Z,101962.42
2018-07-14T04:12:01.596Z,101963.28
2018-07-14T04:14:30.419Z,101967.86
2018-07-14T04:16:59.443Z,101967.79
2018-07-14T04:19:28.206Z,101968.28
2018-07-14T04:21:57.259Z,101973.58
2018-07-14T04:24:26.036Z,101966.34
2018-07-14T04:26:55.162Z,101962.70
2018-07-14T04:29:24.221Z,101965.58
2018-07-14T04:31:53.640Z,101959.42
2018-07-14T04:34:22.754Z,101964.31
2018-07-14T04:36:51.503Z,101965.89
2018-07-14T04:39:21.219Z,101969.08
2018-07-14T04:41:50.027Z,101961.77
2018-07-14T04:44:19.130Z,101970.28
2018-07-14T04:46:48.253Z,101964.23
2018-07-14T04:49:17.692Z,101962.94
2018-07-14T04:51:46.596Z,101967.29
2018-07-14T04:54:15.733Z,101975.20
2018-07-14T04:56:44.785Z,101979.47
2018-07-14T04:59:13.614Z,101981.01
2018-07-14T05:01:42.920Z,101984.70
2018-07-14T05:04:12.068Z,101983.88
2018-07-14T05:06:41.200Z,101983.00
2018-07-14T05:09:10.272Z,101989.64
2018-07-14T05:11:39.438Z,101984.80
2018-07-14T05:14:08.251Z,101981.28
2018-07-14T05:16:37.090Z,101980.57
2018-07-14T05:19:06.422Z,101983.34
2018-07-14T05:21:35.196Z,101991.02
2018-07-14T05:24:04.051Z,101985.36
2018-07-14T05:26:33.343Z,101983.23
2018-07-14T05:29:02.161Z,101987.97
2018-07-14T05:31:31.440Z,101988.63
2018-07-14T05:34:00.869Z,101982.45
2018-07-14T05:36:29.953Z,101981.20
2018-07-14T05:38:59.134Z,101979.67
2018-07-14T05:41:27.918Z,101979.53
2018-07-14T05:43:56.805Z,101982.09
2018-07-14T05:46:25.582Z,101982.46
2018-07-14T05:48:54.675Z,101989.44
2018-07-14T05:51:23.534Z,101988.44
2018-07-14T05:53:52.348Z,101986.83
2018-07-14T05:56:22.070Z,101993.42
2018-07-14T05:58:51.220Z,101991.30
2018-07-14T06:01:19.990Z,102001.73
2018-07-14T06:03:48.775Z,101999.35
2018-07-14T06:06:17.586Z,102002.41
2018-07-14T06:08:46.637Z,102004.92
2018-07-14T06:11:15.477Z,102016.72
2018-07-14T06:13:44.623Z,102016.02
2018-07-14T06:16:13.355Z,102018.30
2018-07-14T06:18:42.224Z,102020.01
2018-07-14T06:21:12.011Z,102023.66
2018-07-14T06:23:41.442Z,102026.58
2018-07-14T06:26:10.365Z,102029.18
2018-07-14T06:28:39.518Z,102029.20
2018-07-14T06:31:08.609Z,102027.44
2018-07-14T06:33:37.747Z,102026.66
2018-07-14T06:36:06.808Z,102030.98
2018-07-14T06:38:35.659Z,102024.46
2018-07-14T06:41:05.061Z,102032.06
2018-07-14T06:43:34.156Z,102031.27
2018-07-14T06:46:03.178Z,102034.58
2018-07-14T06:48:32.001Z,102032.47
2018-07-14T06:51:01.242Z,102026.11
2018-07-14T06:53:30.688Z,102030.95
2018-07-14T06:56:00.014Z,102035.30
2018-07-14T06:58:28.789Z,102036.11
2018-07-14T07:00:58.222Z,102035.12
2018-07-14T07:03:27.085Z,102031.15
2018-07-14T07:05:56.167Z,102032.81
2018-07-14T07:08:25.047Z,102032.02
2018-07-14T07:10:54.484Z,102029.67
2018-07-14T07:13:23.538Z,102027.96
2018-07-14T07:15:52.618Z,102025.75
2018-07-14T07:18:21.396Z,102026.52
2018-07-14T07:20:50.461Z,102035.78
2018-07-14T07:23:19.560Z,102039.27
2018-07-14T07:25:48.703Z,102033.92
2018-07-14T07:28:18.118Z,102029.16
2018-07-14T07:30:47.512Z,102028.65
2018-07-14T07:33:17.045Z,102023.19
2018-07-14T07:35:46.113Z,102028.73
2018-07-14T07:38:14.914Z,102030.77
2018-07-14T07:40:44.026Z,102023.07
2018-07-14T07:43:13.466Z,102023.31
2018-07-14T07:45:42.245Z,102024.50
2018-07-14T07:48:11.140Z,102017.50
2018-07-14T07:50:40.211Z,102016.42
2018-07-14T07:53:09.026Z,102018.23
2018-07-14T07:55:38.045Z,102023.15
2018-07-14T07:58:07.106Z,102016.86
2018-07-14T08:00:35.909Z,102015.00
2018-07-14T08:03:04.929Z,102014.01
2018-07-14T08:05:34.973Z,102015.32
2018-07-14T08:08:03.788Z,102010.81
2018-07-14T08:10:32.807Z,102007.88
2018-07-14T08:13:01.825Z,102010.38
2018-07-14T08:15:30.546Z,102015.23
2018-07-14T08:17:59.558Z,102020.60
2018-07-14T08:20:28.605Z,102015.20
2018-07-14T08:22:57.805Z,102021.64
2018-07-14T08:25:26.902Z,102025.11
2018-07-14T08:27:56.306Z,102021.91
2018-07-14T08:30:25.487Z,102018.56
2018-07-14T08:32:54.247Z,102020.95
2018-07-14T08:35:23.039Z,102018.98
2018-07-14T08:37:52.121Z,102018.78
2018-07-14T08:40:20.891Z,102019.94
2018-07-14T08:42:49.652Z,102026.16
2018-07-14T08:45:18.447Z,102016.43
2018-07-14T08:47:47.347Z,102023.08
2018-07-14T08:50:16.424Z,102015.73
2018-07-14T08:52:45.142Z,102009.05
2018-07-14T08:55:13.904Z,102011.23
2018-07-14T08:57:43.278Z,102011.39
2018-07-14T09:00:13.228Z,102016.20
2018-07-14T09:02:42.284Z,102011.38
2018-07-14T09:05:11.000Z,102010.23
2018-07-14T09:07:39.845Z,102014.13
2018-07-14T09:10:09.110Z,102015.05
2018-07-14T09:12:38.546Z,102018.86
2018-07-14T09:15:07.997Z,102017.38
2018-07-14T09:17:37.037Z,102016.45
2018-07-14T09:20:06.249Z,102024.61
2018-07-14T09:22:35.643Z,102022.09
2018-07-14T09:25:04.522Z,102026.34
2018-07-14T09:27:33.630Z,102024.97
2018-07-14T09:30:02.524Z,102024.39
2018-07-14T09:32:31.718Z,102021.28
2018-07-14T09:35:00.830Z,102018.30
2018-07-14T09:37:30.249Z,102019.87
2018-07-14T09:39:59.282Z,102014.05
2018-07-14T09:42:28.058Z,102014.84
2018-07-14T09:44:57.134Z,102014.25
2018-07-14T09:47:25.915Z,102005.81
2018-07-14T09:49:55.137Z,102004.67
2018-07-14T09:52:24.265Z,102009.80
2018-07-14T09:54:53.099Z,102007.38
2018-07-14T09:57:22.115Z,102010.06
2018-07-14T09:59:50.874Z,102005.41
2018-07-14T10:02:19.659Z,102005.92
2018-07-14T10:04:49.338Z,102004.74
2018-07-14T10:07:18.660Z,102004.61
2018-07-14T10:09:47.938Z,102005.23
2018-07-14T10:12:16.987Z,102003.97
2018-07-14T10:14:46.079Z,102006.61
2018-07-14T10:17:15.218Z,102003.16
2018-07-14T10:19:44.206Z,102008.98
2018-07-14T10:22:13.455Z,102003.36
2018-07-14T10:24:42.203Z,102001.73
2018-07-14T10:27:11.613Z,101999.44
2018-07-14T10:29:40.398Z,101993.50
2018-07-14T10:32:09.759Z,101987.83
2018-07-14T10:34:38.789Z,101986.69
2018-07-14T10:37:07.928Z,101985.31
2018-07-14T10:39:37.258Z,101985.06
2018-07-14T10:42:06.405Z,101992.44
2018-07-14T10:44:35.924Z,101997.56
2018-07-14T10:47:05.279Z,101993.09
2018-07-14T10:49:34.692Z,101995.78
2018-07-14T10:52:03.588Z,101990.69
2018-07-14T10:54:33.032Z,101986.41
2018-07-14T10:57:02.127Z,101989.90
2018-07-14T10:59:31.199Z,101981.17
2018-07-14T11:02:00.329Z,101971.66
2018-07-14T11:04:29.524Z,101978.53
2018-07-14T11:06:58.372Z,101983.34
2018-07-14T11:09:27.390Z,101976.83
2018-07-14T11:11:56.405Z,101973.75
2018-07-14T11:14:28.604Z,101977.15
2018-07-14T11:16:58.060Z,101966.91
2018-07-14T11:19:28.024Z,101968.39
2018-07-14T11:21:57.796Z,101967.20
2018-07-14T11:24:27.351Z,101967.05
2018-07-14T11:26:56.196Z,101964.15
2018-07-14T11:29:25.641Z,101964.58
2018-07-14T11:31:54.458Z,101962.64
2018-07-14T11:34:23.467Z,101964.89
2018-07-14T11:36:52.663Z,101962.84
2018-07-14T11:39:21.894Z,101960.03
2018-07-14T11:41:51.284Z,101961.17
2018-07-14T11:44:20.336Z,101958.25
2018-07-14T11:46:49.372Z,101954.08
2018-07-14T11:49:18.215Z,101960.56
2018-07-14T11:51:47.528Z,101961.41
2018-07-14T11:54:16.317Z,101957.16
2018-07-14T11:56:45.446Z,101951.26
2018-07-14T11:59:14.236Z,101959.98
2018-07-14T12:01:43.290Z,101947.66
2018-07-14T12:04:12.315Z,101947.12
2018-07-14T12:06:41.965Z,101949.06
2018-07-14T12:09:10.780Z,101945.63
2018-07-14T12:11:39.911Z,101937.86
2018-07-14T12:14:08.734Z,101937.88
2018-07-14T12:16:37.913Z,101939.52
2018-07-14T12:19:07.062Z,101922.19
2018-07-14T12:21:35.897Z,101923.37
2018-07-14T12:26:46.497Z,101924.75
2018-07-14T12:29:15.908Z,101928.06
2018-07-14T12:31:44.703Z,101924.11
2018-07-14T12:34:14.033Z,101923.89
2018-07-14T12:36:42.810Z,101910.47
2018-07-14T12:39:11.579Z,101903.09
2018-07-14T12:41:40.435Z,101899.52
2018-07-14T12:44:09.354Z,101900.74
2018-07-14T12:46:38.526Z,101899.92
2018-07-14T12:49:07.374Z,101902.31
2018-07-14T12:51:36.263Z,101896.56
2018-07-14T12:54:05.334Z,101896.34
2018-07-14T12:56:34.245Z,101895.91
2018-07-14T12:59:03.421Z,101894.51
2018-07-14T13:01:33.261Z,101888.43
2018-07-14T13:04:02.131Z,101890.56
2018-07-14T13:06:31.113Z,101893.33
2018-07-14T13:09:00.177Z,101884.52
2018-07-14T13:11:29.307Z,101887.87
2018-07-14T13:13:58.245Z,101884.23
2018-07-14T13:16:27.667Z,101877.47
2018-07-14T13:18:56.516Z,101872.77
2018-07-14T13:21:25.580Z,101877.13
2018-07-14T13:23:54.690Z,101877.78
2018-07-14T13:26:23.469Z,101877.31
2018-07-14T13:28:53.040Z,101869.96
2018-07-14T13:31:22.288Z,101865.53
2018-07-14T13:33:51.821Z,101861.05
2018-07-14T13:36:21.144Z,101860.32
2018-07-14T13:38:51.736Z,101866.49
2018-07-14T13:41:19.515Z,101864.81
2018-07-14T13:43:48.725Z,101863.41
2018-07-14T13:46:18.245Z,101858.25
2018-07-14T13:48:47.601Z,101858.00
2018-07-14T13:51:16.999Z,101850.90
2018-07-14T13:53:46.244Z,101849.30
2018-07-14T13:56:15.382Z,101843.40
2018-07-14T13:58:44.250Z,101842.70
2018-07-14T14:01:14.093Z,101847.02
2018-07-14T14:03:43.034Z,101843.36
2018-07-14T14:06:11.898Z,101841.74
2018-07-14T14:08:41.491Z,101839.03
2018-07-14T14:11:10.443Z,101830.70
2018-07-14T14:13:39.627Z,101822.41
2018-07-14T14:16:08.668Z,101825.03
2018-07-14T14:18:37.688Z,101828.94
2018-07-14T14:21:06.895Z,101820.55
2018-07-14T14:23:35.787Z,101826.76
2018-07-14T14:26:04.956Z,101824.13
2018-07-14T14:28:33.757Z,101827.91
2018-07-14T14:31:02.653Z,101828.09
2018-07-14T14:33:32.231Z,101827.66
2018-07-14T14:36:01.105Z,101814.55
2018-07-14T14:38:30.315Z,101810.65
2018-07-14T14:41:02.889Z,101816.07
2018-07-14T14:43:32.105Z,101810.33
2018-07-14T14:46:02.556Z,101815.72
2018-07-14T14:48:31.901Z,101818.77
2018-07-14T14:51:00.960Z,101814.38
2018-07-14T14:53:30.368Z,101799.03
2018-07-14T14:56:00.340Z,101798.19
2018-07-14T14:58:29.158Z,101798.10
2018-07-14T15:00:59.337Z,101796.17
2018-07-14T15:03:29.514Z,101798.69
2018-07-14T15:05:59.172Z,101794.22
2018-07-14T15:08:28.057Z,101786.64
2018-07-14T15:10:57.728Z,101788.06
2018-07-14T15:13:53.313Z,101792.59
2018-07-14T15:16:22.189Z,101786.80
2018-07-14T15:18:51.446Z,101784.93
2018-07-14T15:21:20.646Z,101784.12
2018-07-14T15:23:50.147Z,101781.98
2018-07-14T15:26:19.130Z,101786.19
2018-07-14T15:28:48.246Z,101774.23
2018-07-14T15:31:17.066Z,101780.00
2018-07-14T15:33:46.469Z,101782.69
2018-07-14T15:36:16.940Z,101789.45
2018-07-14T15:38:45.771Z,101778.63
2018-07-14T15:41:14.538Z,101774.94
2018-07-14T15:43:44.076Z,101781.75
2018-07-14T15:46:13.147Z,101778.09
2018-07-14T15:48:41.994Z,101779.34
2018-07-14T15:51:10.853Z,101785.23
2018-07-14T15:53:40.047Z,101776.16
2018-07-14T15:56:09.138Z,101781.06
2018-07-14T15:58:38.027Z,101776.66
2018-07-14T16:01:07.159Z,101776.09
2018-07-14T16:03:36.307Z,101786.14
2018-07-14T16:06:05.528Z,101778.39
2018-07-14T16:08:34.673Z,101772.66
2018-07-14T16:11:03.478Z,101775.47
2018-07-14T16:13:32.412Z,101773.66
2018-07-14T16:16:01.255Z,101778.03
2018-07-14T16:18:30.492Z,101772.00
2018-07-14T16:20:59.621Z,101777.22
2018-07-14T16:23:28.791Z,101783.03
2018-07-14T16:25:58.068Z,101782.44
2018-07-14T16:28:26.970Z,101771.76
2018-07-14T16:30:55.850Z,101772.51
2018-07-14T16:33:24.855Z,101770.92
2018-07-14T16:35:53.891Z,101769.22
2018-07-14T16:38:22.984Z,101772.84
2018-07-14T16:40:51.889Z,101778.65
2018-07-14T16:43:21.821Z,101770.09
2018-07-14T16:45:50.722Z,101773.89
2018-07-14T16:48:19.589Z,101770.51
2018-07-14T16:50:48.506Z,101765.33
2018-07-14T16:53:17.504Z,101758.56
2018-07-14T16:55:46.586Z,101759.33
2018-07-14T16:58:15.834Z,101766.12
2018-07-14T17:00:44.676Z,101762.73
2018-07-14T17:03:14.228Z,101757.77
2018-07-14T17:05:43.279Z,101764.12
2018-07-14T17:08:12.191Z,101760.73
2018-07-14T17:10:41.971Z,101768.52
2018-07-14T17:13:11.061Z,101759.33
2018-07-14T17:15:40.291Z,101766.69
2018-07-14T17:18:10.217Z,101762.32
2018-07-14T17:20:39.388Z,101770.27
2018-07-14T17:23:08.484Z,101770.62
2018-07-14T17:25:37.592Z,101769.59
2018-07-14T17:28:07.171Z,101758.94
2018-07-14T17:30:36.347Z,101764.24
2018-07-14T17:33:06.414Z,101767.11
2018-07-14T17:35:35.535Z,101765.37
2018-07-14T17:38:04.702Z,101761.31
2018-07-14T17:40:33.535Z,101769.77
2018-07-14T17:43:02.722Z,101763.91
2018-07-14T17:45:31.604Z,101764.29
2018-07-14T17:48:00.809Z,101763.97
2018-07-14T17:50:29.706Z,101759.59
2018-07-14T17:53:00.095Z,101756.17
2018-07-14T17:55:29.220Z,101761.93
2018-07-14T17:57:58.334Z,101760.40
2018-07-14T18:00:28.506Z,101767.91
2018-07-14T18:02:57.670Z,101768.14
2018-07-14T18:05:26.612Z,101761.44
2018-07-14T18:07:57.346Z,101768.34
2018-07-14T18:10:26.534Z,101765.05
2018-07-14T18:12:55.517Z,101765.97
2018-07-14T18:15:24.347Z,101769.60
2018-07-14T18:17:53.689Z,101771.88
2018-07-14T18:20:22.831Z,101769.84
2018-07-14T18:22:57.662Z,101765.87
2018-07-14T18:25:26.891Z,101771.20
2018-07-14T18:27:56.301Z,101769.41
2018-07-14T18:30:25.495Z,101764.17
2018-07-14T18:32:54.749Z,101772.59
2018-07-14T18:35:24.219Z,101775.44
2018-07-14T18:37:54.027Z,101771.16
2018-07-14T18:40:23.497Z,101772.36
2018-07-14T18:42:52.336Z,101782.31
2018-07-14T18:45:21.564Z,101781.08
2018-07-14T18:47:50.685Z,101782.75
2018-07-14T18:50:19.794Z,101780.33
2018-07-14T18:52:49.252Z,101779.95
2018-07-14T18:55:18.446Z,101785.55
2018-07-14T18:57:47.240Z,101797.53
2018-07-14T19:00:16.347Z,101795.97
2018-07-14T19:02:45.775Z,101795.08
2018-07-14T19:05:23.702Z,101791.73
2018-07-14T19:07:53.151Z,101790.02
2018-07-14T19:10:22.783Z,101794.66
2018-07-14T19:12:51.970Z,101787.41
2018-07-14T19:15:25.983Z,101795.06
2018-07-14T19:17:55.169Z,101789.84
2018-07-14T19:20:24.943Z,101791.98
2018-07-14T19:22:54.124Z,101788.81
2018-07-14T19:25:23.038Z,101792.19
2018-07-14T19:27:52.093Z,101795.68
2018-07-14T19:30:21.387Z,101793.77
2018-07-14T19:32:50.527Z,101798.77
2018-07-14T19:35:19.350Z,101802.05
2018-07-14T19:37:48.308Z,101794.58
2018-07-14T19:40:17.616Z,101797.27
2018-07-14T19:42:46.484Z,101796.94
2018-07-14T19:45:15.415Z,101797.19
2018-07-14T19:47:44.624Z,101789.87
2018-07-14T19:50:14.065Z,101797.70
2018-07-14T19:52:42.879Z,101803.12
2018-07-14T19:55:12.603Z,101801.73
2018-07-14T19:57:42.034Z,101801.41
2018-07-14T20:00:11.126Z,101806.48
2018-07-14T20:02:39.861Z,101799.81
2018-07-14T20:05:08.918Z,101800.50
2018-07-14T20:07:37.789Z,101797.27
2018-07-14T20:10:06.862Z,101803.09
2018-07-14T20:12:36.001Z,101794.84
2018-07-14T20:15:04.814Z,101804.83
2018-07-14T20:17:33.654Z,101800.23
2018-07-14T20:20:02.796Z,101800.00
2018-07-14T20:22:31.786Z,101804.34
2018-07-14T20:25:00.589Z,101809.95
2018-07-14T20:27:29.387Z,101809.37
2018-07-14T20:29:59.144Z,101809.97
2018-07-14T20:32:28.126Z,101816.13
2018-07-14T20:34:57.295Z,101815.20
2018-07-14T20:37:26.056Z,101813.67
2018-07-14T20:39:54.851Z,101813.88
2018-07-14T20:42:23.982Z,101818.80
2018-07-14T20:44:52.747Z,101816.84
2018-07-14T20:47:21.554Z,101818.11
2018-07-14T20:49:50.314Z,101817.98
2018-07-14T20:52:19.807Z,101824.16
2018-07-14T20:54:48.883Z,101824.61
2018-07-14T20:57:18.036Z,101824.02
2018-07-14T20:59:47.238Z,101822.82
2018-07-14T21:02:16.303Z,101830.37
2018-07-14T21:04:45.719Z,101828.97
2018-07-14T21:07:15.044Z,101829.50
2018-07-14T21:09:44.207Z,101826.06
2018-07-14T21:12:13.603Z,101826.27
2018-07-14T21:14:43.324Z,101824.20
2018-07-14T21:17:12.407Z,101821.31
2018-07-14T21:19:41.745Z,101828.13
2018-07-14T21:22:10.587Z,101824.34
2018-07-14T21:24:40.660Z,101826.75
2018-07-14T21:27:09.502Z,101824.87
2018-07-14T21:29:39.042Z,101817.59
2018-07-14T21:32:09.142Z,101825.38
2018-07-14T21:34:38.359Z,101825.11
2018-07-14T21:37:07.141Z,101827.22
2018-07-14T21:39:35.975Z,101823.07
2018-07-14T21:42:05.129Z,101823.70
2018-07-14T21:44:33.983Z,101821.27
2018-07-14T21:47:03.185Z,101827.36
2018-07-14T21:49:32.703Z,101830.73
2018-07-14T21:52:01.528Z,101819.99
2018-07-14T21:54:30.776Z,101822.75
2018-07-14T21:56:59.566Z,101828.90
2018-07-14T21:59:28.561Z,101828.23
2018-07-14T22:01:58.161Z,101832.64
2018-07-14T22:04:27.241Z,101819.52
2018-07-14T22:06:56.064Z,101818.33
2018-07-14T22:09:26.533Z,101821.28
2018-07-14T22:11:56.551Z,101818.16
2018-07-14T22:14:26.467Z,101824.44
2018-07-14T22:16:56.532Z,101822.52
2018-07-14T22:19:26.357Z,101820.82
2018-07-14T22:21:56.631Z,101818.70
2018-07-14T22:24:26.003Z,101817.67
2018-07-14T22:26:55.143Z,101818.70
2018-07-14T22:29:24.601Z,101826.47
2018-07-14T22:31:53.601Z,101824.59
2018-07-14T22:34:23.512Z,101829.37
2018-07-14T22:36:53.082Z,101823.01
2018-07-14T22:39:22.181Z,101824.62
2018-07-14T22:41:51.059Z,101828.02
2018-07-14T22:44:20.781Z,101829.47
2018-07-14T22:46:49.676Z,101827.04
2018-07-14T22:49:18.865Z,101823.84
2018-07-14T22:51:48.054Z,101828.41
2018-07-14T22:54:17.265Z,101824.30
2018-07-14T22:56:46.085Z,101824.88
2018-07-14T22:59:15.854Z,101825.75
2018-07-14T23:01:44.658Z,101832.59
2018-07-14T23:04:13.560Z,101833.82
2018-07-14T23:06:42.887Z,101827.27
2018-07-14T23:09:12.059Z,101826.88
2018-07-14T23:11:41.158Z,101818.83
2018-07-14T23:14:10.226Z,101828.08
2018-07-14T23:16:40.020Z,101824.05
2018-07-14T23:19:08.931Z,101826.57
2018-07-14T23:21:38.489Z,101821.09
2018-07-14T23:24:08.347Z,101824.45
2018-07-14T23:26:37.479Z,101823.98
2018-07-14T23:29:06.372Z,101821.87
2018-07-14T23:31:35.403Z,101818.66
2018-07-14T23:34:04.209Z,101811.90
2018-07-14T23:36:33.665Z,101814.95
2018-07-14T23:39:02.863Z,101817.52
2018-07-14T23:41:32.265Z,101820.33
2018-07-14T23:44:01.032Z,101816.87
2018-07-14T23:46:29.969Z,101815.83
2018-07-14T23:48:59.581Z,101815.66
2018-07-14T23:51:28.576Z,101812.20
2018-07-14T23:53:57.889Z,101810.05
2018-07-14T23:56:26.807Z,101809.33
2018-07-14T23:58:55.988Z,101804.26
